createdAt,value
2023-05-25T00:00:31.477Z,11.57
2023-05-25T00:04:48.844Z,11.23
2023-05-25T00:09:06.399Z,12.38
2023-05-25T00:13:23.679Z,12.25
2023-05-25T00:17:41.087Z,11.77
2023-05-25T00:22:02.049Z,11.50
2023-05-25T00:26:19.267Z,11.85
2023-05-25T00:30:36.609Z,12.52
2023-05-25T00:34:55.068Z,11.27
2023-05-25T00:39:12.690Z,10.70
2023-05-25T00:43:29.942Z,11.77
2023-05-25T00:47:51.992Z,11.63
2023-05-25T00:52:14.842Z,10.20
2023-05-25T00:56:35.562Z,12.32
2023-05-25T01:00:57.866Z,11.02
2023-05-25T01:05:17.650Z,11.68
2023-05-25T01:09:38.772Z,12.15
2023-05-25T01:13:58.176Z,11.88
2023-05-25T01:18:16.936Z,12.40
2023-05-25T01:22:41.053Z,11.15
2023-05-25T01:27:34.558Z,13.05
2023-05-25T01:31:53.588Z,12.20
2023-05-25T01:36:11.501Z,12.45
2023-05-25T01:40:29.153Z,12.63
2023-05-25T01:44:46.589Z,11.20
2023-05-25T01:49:16.863Z,11.32
2023-05-25T01:53:44.114Z,11.05
2023-05-25T01:58:02.615Z,11.60
2023-05-25T02:06:38.780Z,12.45
2023-05-25T02:10:56.108Z,11.70
2023-05-25T02:15:13.424Z,13.55
2023-05-25T02:19:30.787Z,11.90
2023-05-25T02:23:49.541Z,10.95
2023-05-25T02:28:06.809Z,12.13
2023-05-25T02:32:25.517Z,12.98
2023-05-25T02:36:45.005Z,11.85
2023-05-25T02:41:02.672Z,12.38
2023-05-25T02:45:19.880Z,12.15
2023-05-25T02:49:37.196Z,12.38
2023-05-25T02:53:54.509Z,12.43
2023-05-25T02:58:12.254Z,11.70
2023-05-25T03:02:31.030Z,11.40
2023-05-25T03:06:48.765Z,11.75
2023-05-25T03:11:06.193Z,11.47
2023-05-25T03:15:23.438Z,11.73
2023-05-25T03:19:41.326Z,12.05
2023-05-25T03:23:59.546Z,12.48
2023-05-25T03:28:16.876Z,12.23
2023-05-25T03:32:34.456Z,13.15
2023-05-25T03:36:53.626Z,13.15
2023-05-25T03:41:11.003Z,12.70
2023-05-25T03:45:28.214Z,12.18
2023-05-25T03:49:45.690Z,14.05
2023-05-25T03:54:02.981Z,12.55
2023-05-25T03:58:20.468Z,12.07
2023-05-25T04:02:38.052Z,12.70
2023-05-25T04:06:55.595Z,13.17
2023-05-25T04:11:12.840Z,14.15
2023-05-25T04:15:30.646Z,13.05
2023-05-25T04:19:48.176Z,14.07
2023-05-25T04:24:06.687Z,13.32
2023-05-25T04:32:43.912Z,13.32
2023-05-25T04:37:05.906Z,14.88
2023-05-25T04:41:23.255Z,13.93
2023-05-25T04:45:40.858Z,13.38
2023-05-25T04:49:58.114Z,14.15
2023-05-25T04:54:15.953Z,13.55
2023-05-25T04:58:33.681Z,14.07
2023-05-25T05:02:51.634Z,12.33
2023-05-25T05:07:09.239Z,13.30
2023-05-25T05:11:27.652Z,13.02
2023-05-25T05:15:45.105Z,13.48
2023-05-25T05:20:02.678Z,13.80
2023-05-25T05:24:20.008Z,13.38
2023-05-25T05:28:37.986Z,14.00
2023-05-25T05:32:55.873Z,15.52
2023-05-25T05:37:13.229Z,13.60
2023-05-25T05:41:30.829Z,14.27
2023-05-25T05:45:48.151Z,13.75
2023-05-25T05:50:06.575Z,13.48
2023-05-25T05:54:24.091Z,14.55
2023-05-25T05:58:41.775Z,14.20
2023-05-25T06:03:01.094Z,14.45
2023-05-25T06:07:18.922Z,13.88
2023-05-25T06:11:37.673Z,14.60
2023-05-25T06:15:54.992Z,14.68
2023-05-25T06:20:12.603Z,13.02
2023-05-25T06:24:31.253Z,13.70
2023-05-25T06:33:11.239Z,12.80
2023-05-25T06:37:35.169Z,12.70
2023-05-25T06:41:52.510Z,12.85
2023-05-25T06:46:11.644Z,12.35
2023-05-25T06:50:29.163Z,12.70
2023-05-25T06:54:46.424Z,11.98
2023-05-25T06:59:03.789Z,10.23
2023-05-25T07:03:22.158Z,10.45
2023-05-25T07:07:39.444Z,11.52
2023-05-25T07:11:57.102Z,10.73
2023-05-25T07:16:14.744Z,10.55
2023-05-25T07:20:36.672Z,10.13
2023-05-25T07:24:55.942Z,9.88
2023-05-25T07:29:13.226Z,10.02
2023-05-25T07:33:31.068Z,10.10
2023-05-25T07:37:59.642Z,9.65
2023-05-25T07:42:21.760Z,8.25
2023-05-25T07:46:39.203Z,6.70
2023-05-25T07:50:56.570Z,6.85
2023-05-25T07:55:13.967Z,7.25
2023-05-25T07:59:31.265Z,5.32
2023-05-25T08:03:50.319Z,7.43
2023-05-25T08:08:08.254Z,6.93
2023-05-25T08:12:45.959Z,7.35
2023-05-25T08:17:05.475Z,5.10
2023-05-25T08:21:22.901Z,5.30
2023-05-25T08:25:40.347Z,7.05
2023-05-25T08:29:57.735Z,7.25
2023-05-25T08:34:15.836Z,6.85
2023-05-25T08:38:33.465Z,7.43
2023-05-25T08:42:50.757Z,6.07
2023-05-25T08:47:08.520Z,5.07
2023-05-25T08:51:26.154Z,6.80
2023-05-25T08:55:52.366Z,6.28
2023-05-25T09:00:14.073Z,6.38
2023-05-25T09:04:34.448Z,5.78
2023-05-25T09:08:52.841Z,5.90
2023-05-25T09:13:22.191Z,5.97
2023-05-25T09:17:41.728Z,6.50
2023-05-25T09:26:34.266Z,5.03
2023-05-25T09:30:52.323Z,7.00
2023-05-25T09:35:15.424Z,6.32
2023-05-25T09:39:33.556Z,6.45
2023-05-25T09:44:01.982Z,6.20
2023-05-25T09:48:31.391Z,6.90
2023-05-25T09:52:49.399Z,6.07
2023-05-25T09:57:07.141Z,6.93
2023-05-25T10:01:26.251Z,8.10
2023-05-25T10:05:43.643Z,8.73
2023-05-25T10:10:07.068Z,7.97
2023-05-25T10:14:31.191Z,7.50
2023-05-25T10:19:03.920Z,6.80
2023-05-25T10:23:23.064Z,6.95
2023-05-25T10:27:56.707Z,8.50
2023-05-25T10:32:16.537Z,9.65
2023-05-25T10:36:34.777Z,8.40
2023-05-25T10:40:54.370Z,8.55
2023-05-25T10:45:12.977Z,7.47
2023-05-25T10:49:34.192Z,6.80
2023-05-25T10:54:04.001Z,6.47
2023-05-25T10:58:23.411Z,6.78
2023-05-25T11:02:56.163Z,6.85
2023-05-25T11:07:16.709Z,7.90
2023-05-25T11:11:43.132Z,6.88
2023-05-25T11:16:17.801Z,8.43
2023-05-25T11:20:35.474Z,8.10
2023-05-25T11:24:53.872Z,7.13
2023-05-25T11:29:16.372Z,9.13
2023-05-25T11:33:33.731Z,8.00
2023-05-25T11:37:53.920Z,7.38
2023-05-25T11:42:12.901Z,6.95
2023-05-25T11:46:33.231Z,7.00
2023-05-25T11:51:05.301Z,8.40
2023-05-25T11:55:23.051Z,7.38
2023-05-25T11:59:41.497Z,8.32
2023-05-25T12:04:09.427Z,8.10
2023-05-25T12:08:33.984Z,7.95
2023-05-25T12:12:52.374Z,7.55
2023-05-25T12:17:10.537Z,7.10
2023-05-25T12:21:28.514Z,7.95
2023-05-25T12:25:50.864Z,8.13
2023-05-25T12:30:10.558Z,7.55
2023-05-25T12:34:29.186Z,6.88
2023-05-25T12:43:17.872Z,7.10
2023-05-25T12:47:35.383Z,7.32
2023-05-25T12:51:53.260Z,6.53
2023-05-25T12:56:12.744Z,7.33
2023-05-25T13:00:38.357Z,6.75
2023-05-25T13:04:55.947Z,7.03
2023-05-25T13:09:14.572Z,7.15
2023-05-25T13:17:51.305Z,9.00
2023-05-25T13:22:08.976Z,7.70
2023-05-25T13:26:26.447Z,7.18
2023-05-25T13:30:44.050Z,7.32
2023-05-25T13:35:01.668Z,8.23
2023-05-25T13:39:24.051Z,7.90
2023-05-25T13:43:41.278Z,7.38
2023-05-25T13:47:59.145Z,7.50
2023-05-25T13:52:17.024Z,7.25
2023-05-25T13:56:34.483Z,7.23
2023-05-25T14:00:51.741Z,6.25
2023-05-25T14:05:09.798Z,6.88
2023-05-25T14:09:27.436Z,6.97
2023-05-25T14:13:45.839Z,5.95
2023-05-25T14:18:03.450Z,6.68
2023-05-25T14:22:21.369Z,6.40
2023-05-25T14:26:38.816Z,6.70
2023-05-25T14:30:56.181Z,6.03
2023-05-25T14:35:13.792Z,7.43
2023-05-25T14:39:31.458Z,5.73
2023-05-25T14:43:49.064Z,5.20
2023-05-25T14:48:15.859Z,6.20
2023-05-25T14:52:34.101Z,6.25
2023-05-25T14:56:51.590Z,6.25
2023-05-25T15:01:09.256Z,5.45
2023-05-25T15:05:27.607Z,6.22
2023-05-25T15:09:45.424Z,5.50
2023-05-25T15:14:02.698Z,5.23
2023-05-25T15:18:20.418Z,4.97
2023-05-25T15:22:37.677Z,5.67
2023-05-25T15:26:55.331Z,5.32
2023-05-25T15:31:12.820Z,4.77
2023-05-25T15:35:32.849Z,4.85
2023-05-25T15:39:50.588Z,5.03
2023-05-25T15:44:12.565Z,4.77
2023-05-25T15:48:30.053Z,5.25
2023-05-25T15:52:48.828Z,5.55
2023-05-25T16:01:23.661Z,6.20
2023-05-25T16:05:41.309Z,4.95
2023-05-25T16:10:02.278Z,5.50
2023-05-25T16:14:19.996Z,5.75
2023-05-25T16:18:37.710Z,5.70
2023-05-25T16:22:55.112Z,5.88
2023-05-25T16:27:12.489Z,5.75
2023-05-25T16:31:29.891Z,6.22
2023-05-25T16:35:47.651Z,7.05
2023-05-25T16:40:05.604Z,6.32
2023-05-25T16:44:23.914Z,5.72
2023-05-25T16:48:41.191Z,5.90
2023-05-25T16:53:01.244Z,5.97
2023-05-25T16:57:20.450Z,6.05
2023-05-25T17:01:37.732Z,6.15
2023-05-25T17:05:55.104Z,5.60
2023-05-25T17:10:12.350Z,5.80
2023-05-25T17:14:29.789Z,5.13
2023-05-25T17:18:47.482Z,5.32
2023-05-25T17:23:05.138Z,5.13
2023-05-25T17:27:23.887Z,5.43
2023-05-25T17:31:41.292Z,5.18
2023-05-25T17:36:00.256Z,5.00
2023-05-25T17:40:18.348Z,5.40
2023-05-25T17:44:40.138Z,4.78
2023-05-25T17:48:57.450Z,5.38
2023-05-25T17:53:15.736Z,4.65
2023-05-25T17:57:33.183Z,5.18
2023-05-25T18:01:53.476Z,5.32
2023-05-25T18:06:11.057Z,5.88
2023-05-25T18:10:38.898Z,5.47
2023-05-25T18:14:56.984Z,6.00
2023-05-25T18:19:16.984Z,5.88
2023-05-25T18:23:34.722Z,6.53
2023-05-25T18:27:52.780Z,6.20
2023-05-25T18:32:11.001Z,6.10
2023-05-25T18:36:28.440Z,6.80
2023-05-25T18:40:47.121Z,5.85
2023-05-25T18:45:06.198Z,5.85
2023-05-25T18:49:24.460Z,5.93
2023-05-25T18:53:41.977Z,6.00
2023-05-25T18:57:59.520Z,5.63
2023-05-25T19:02:17.870Z,6.55
2023-05-25T19:06:36.144Z,6.22
2023-05-25T19:10:54.695Z,6.50
2023-05-25T19:15:13.348Z,6.68
2023-05-25T19:19:30.689Z,6.68
2023-05-25T19:23:48.739Z,6.40
2023-05-25T19:28:07.416Z,6.30
2023-05-25T19:32:24.966Z,6.63
2023-05-25T19:36:45.087Z,8.18
2023-05-25T19:41:02.493Z,8.15
2023-05-25T19:45:20.157Z,7.15
2023-05-25T19:49:38.133Z,7.18
2023-05-25T19:53:56.145Z,7.83
2023-05-25T19:58:13.566Z,8.53
2023-05-25T20:02:30.946Z,8.10
2023-05-25T20:06:48.580Z,8.38
2023-05-25T20:11:06.057Z,7.82
2023-05-25T20:15:23.493Z,9.23
2023-05-25T20:19:41.739Z,9.13
2023-05-25T20:24:00.413Z,9.40
2023-05-25T20:28:22.749Z,8.77
2023-05-25T20:32:40.164Z,8.32
2023-05-25T20:42:32.781Z,8.55
2023-05-25T20:47:12.983Z,8.80
2023-05-25T20:51:31.300Z,8.55
2023-05-25T20:55:48.710Z,8.95
2023-05-25T21:00:10.174Z,9.15
2023-05-25T21:04:28.496Z,8.73
2023-05-25T21:08:47.075Z,8.95
2023-05-25T21:13:04.499Z,8.93
2023-05-25T21:17:21.954Z,8.65
2023-05-25T21:21:39.762Z,9.18
2023-05-25T21:25:57.222Z,8.93
2023-05-25T21:30:14.900Z,9.10
2023-05-25T21:34:32.289Z,9.18
2023-05-25T21:38:49.621Z,8.60
2023-05-25T21:43:09.171Z,9.55
2023-05-25T21:47:26.873Z,9.48
2023-05-25T21:51:44.191Z,8.68
2023-05-25T21:56:01.608Z,9.68
2023-05-25T22:00:19.138Z,9.90
2023-05-25T22:04:36.556Z,10.18
2023-05-25T22:08:53.913Z,9.88
2023-05-25T22:13:11.350Z,9.65
2023-05-25T22:17:28.878Z,9.50
2023-05-25T22:21:46.414Z,9.77
2023-05-25T22:26:05.063Z,9.77
2023-05-25T22:34:39.713Z,10.45
2023-05-25T22:38:57.056Z,9.75
2023-05-25T22:43:14.827Z,11.07
2023-05-25T22:47:32.142Z,11.52
2023-05-25T22:51:49.702Z,10.38
2023-05-25T22:56:12.037Z,11.13
2023-05-25T23:00:29.340Z,10.88
2023-05-25T23:04:47.163Z,11.05
2023-05-25T23:09:04.911Z,10.80
2023-05-25T23:13:24.357Z,11.33
2023-05-25T23:17:41.757Z,11.32
2023-05-25T23:21:59.190Z,11.88
2023-05-25T23:26:16.542Z,11.65
2023-05-25T23:30:33.816Z,11.48
2023-05-25T23:34:51.117Z,10.90
2023-05-25T23:39:09.100Z,10.98
2023-05-25T23:43:26.984Z,11.88
2023-05-25T23:47:44.367Z,11.10
2023-05-25T23:52:01.964Z,11.25
2023-05-25T23:56:19.249Z,11.93
